createdAt,value
2022-10-17T00:00:37.256Z,96.43
2022-10-17T00:03:04.537Z,99.15
2022-10-17T00:05:31.285Z,97.88
2022-10-17T00:07:58.188Z,101.45
2022-10-17T00:10:25.049Z,104.82
2022-10-17T00:12:52.835Z,96.90
2022-10-17T00:15:20.887Z,94.53
2022-10-17T00:17:47.737Z,99.18
2022-10-17T00:20:15.539Z,96.60
2022-10-17T00:22:42.863Z,95.90
2022-10-17T00:25:09.804Z,97.88
2022-10-17T00:27:38.066Z,99.97
2022-10-17T00:30:06.769Z,95.45
2022-10-17T00:32:33.991Z,99.85
2022-10-17T00:35:00.781Z,95.78
2022-10-17T00:37:27.626Z,93.65
2022-10-17T00:39:54.614Z,103.80
2022-10-17T00:42:21.811Z,100.22
2022-10-17T00:44:48.501Z,95.57
2022-10-17T00:47:21.259Z,95.57
2022-10-17T00:49:48.425Z,101.28
2022-10-17T00:52:20.738Z,95.13
2022-10-17T00:54:53.682Z,99.47
2022-10-17T00:57:20.710Z,103.10
2022-10-17T00:59:51.611Z,96.25
2022-10-17T01:02:20.590Z,97.50
2022-10-17T01:04:50.208Z,91.63
2022-10-17T01:07:17.364Z,87.50
2022-10-17T01:09:46.899Z,91.82
2022-10-17T01:12:22.013Z,95.03
2022-10-17T01:15:03.935Z,92.55
2022-10-17T01:17:52.811Z,87.70
2022-10-17T01:21:00.313Z,88.88
2022-10-17T01:24:00.244Z,84.95
2022-10-17T01:26:48.858Z,85.85
2022-10-17T01:29:36.632Z,86.03
2022-10-17T01:32:14.340Z,86.20
2022-10-17T01:34:51.819Z,88.53
2022-10-17T01:37:50.348Z,92.15
2022-10-17T01:40:27.768Z,97.00
2022-10-17T01:43:13.497Z,94.47
2022-10-17T01:46:02.746Z,87.85
2022-10-17T01:48:38.018Z,89.70
2022-10-17T01:51:34.340Z,87.93
2022-10-17T01:54:21.370Z,87.93
2022-10-17T01:56:53.176Z,85.63
2022-10-17T01:59:25.366Z,87.07
2022-10-17T02:01:55.539Z,84.13
2022-10-17T02:04:23.141Z,94.80
2022-10-17T02:06:49.959Z,90.72
2022-10-17T02:09:25.321Z,87.50
2022-10-17T02:12:09.787Z,87.47
2022-10-17T02:14:49.579Z,88.45
2022-10-17T02:17:24.091Z,81.38
2022-10-17T02:20:06.761Z,79.25
2022-10-17T02:23:12.623Z,88.70
2022-10-17T02:25:43.488Z,92.18
2022-10-17T02:28:44.605Z,82.82
2022-10-17T02:31:25.910Z,89.32
2022-10-17T02:33:59.976Z,85.57
2022-10-17T02:36:31.264Z,80.55
2022-10-17T02:39:00.856Z,80.97
2022-10-17T02:43:57.704Z,80.97
2022-10-17T02:46:30.211Z,84.88
2022-10-17T02:49:07.951Z,88.88
2022-10-17T02:52:01.710Z,83.82
2022-10-17T02:54:32.333Z,85.97
2022-10-17T02:57:10.442Z,83.95
2022-10-17T02:59:38.463Z,88.07
2022-10-17T03:02:06.572Z,82.45
2022-10-17T03:04:34.527Z,80.10
2022-10-17T03:07:01.283Z,89.53
2022-10-17T03:09:28.108Z,87.30
2022-10-17T03:11:55.296Z,89.18
2022-10-17T03:14:22.020Z,88.05
2022-10-17T03:16:48.769Z,83.88
2022-10-17T03:19:15.581Z,93.50
2022-10-17T03:21:42.453Z,90.95
2022-10-17T03:24:09.253Z,89.35
2022-10-17T03:26:36.086Z,95.60
2022-10-17T03:29:03.534Z,88.38
2022-10-17T03:31:30.405Z,85.20
2022-10-17T03:33:58.312Z,93.82
2022-10-17T03:36:25.185Z,91.97
2022-10-17T03:38:55.403Z,93.10
2022-10-17T03:41:22.230Z,95.07
2022-10-17T03:43:49.004Z,102.35
2022-10-17T03:46:15.867Z,97.95
2022-10-17T03:48:42.661Z,91.82
2022-10-17T03:51:10.794Z,91.68
2022-10-17T03:53:37.660Z,93.00
2022-10-17T03:56:19.297Z,99.72
2022-10-17T03:58:46.614Z,98.05
2022-10-17T04:01:15.285Z,89.57
2022-10-17T04:03:43.158Z,92.13
2022-10-17T04:06:12.689Z,90.15
2022-10-17T04:08:39.830Z,99.35
2022-10-17T04:11:08.409Z,90.95
2022-10-17T04:13:36.053Z,95.03
2022-10-17T04:16:12.501Z,100.78
2022-10-17T04:18:39.279Z,96.30
2022-10-17T04:21:07.226Z,100.65
2022-10-17T04:23:34.578Z,106.45
2022-10-17T04:26:03.451Z,97.55
2022-10-17T04:28:32.128Z,98.30
2022-10-17T04:31:00.367Z,97.38
2022-10-17T04:33:27.188Z,98.82
2022-10-17T04:36:01.364Z,93.40
2022-10-17T04:38:29.003Z,99.10
2022-10-17T04:41:03.188Z,93.60
2022-10-17T04:43:35.321Z,103.38
2022-10-17T04:46:04.379Z,92.13
2022-10-17T04:48:31.177Z,100.20
2022-10-17T04:51:00.665Z,98.47
2022-10-17T04:53:28.530Z,100.03
2022-10-17T04:55:55.343Z,104.53
2022-10-17T04:58:22.874Z,102.40
2022-10-17T05:00:49.905Z,96.03
2022-10-17T05:03:16.999Z,106.43
2022-10-17T05:05:44.045Z,107.57
2022-10-17T05:08:11.744Z,99.18
2022-10-17T05:10:40.361Z,96.30
2022-10-17T05:13:08.631Z,103.20
2022-10-17T05:15:36.163Z,100.38
2022-10-17T05:18:04.303Z,99.55
2022-10-17T05:20:31.700Z,93.93
2022-10-17T05:23:02.133Z,97.82
2022-10-17T05:25:29.110Z,102.57
2022-10-17T05:27:55.892Z,94.38
2022-10-17T05:30:22.713Z,99.50
2022-10-17T05:32:53.469Z,94.35
2022-10-17T05:35:20.267Z,94.25
2022-10-17T05:37:47.274Z,96.20
2022-10-17T05:40:14.032Z,89.90
2022-10-17T05:45:12.502Z,94.30
2022-10-17T05:47:39.847Z,91.93
2022-10-17T05:50:07.830Z,90.05
2022-10-17T05:52:34.922Z,90.13
2022-10-17T05:55:01.665Z,90.78
2022-10-17T05:57:28.481Z,89.03
2022-10-17T05:59:55.262Z,91.07
2022-10-17T06:02:22.103Z,91.38
2022-10-17T06:04:50.103Z,87.95
2022-10-17T06:07:17.220Z,87.35
2022-10-17T06:12:16.110Z,79.65
2022-10-17T06:14:42.918Z,76.18
2022-10-17T06:17:14.805Z,89.30
2022-10-17T06:19:42.683Z,87.90
2022-10-17T06:22:09.471Z,89.30
2022-10-17T06:24:36.395Z,88.28
2022-10-17T06:27:05.802Z,87.55
2022-10-17T06:29:34.784Z,84.85
2022-10-17T06:32:01.577Z,81.70
2022-10-17T06:34:28.441Z,85.20
2022-10-17T06:39:21.984Z,83.95
2022-10-17T06:41:48.784Z,89.20
2022-10-17T06:44:16.282Z,81.60
2022-10-17T06:46:42.981Z,85.25
2022-10-17T06:49:10.472Z,86.20
2022-10-17T06:51:37.989Z,74.05
2022-10-17T06:54:04.908Z,78.57
2022-10-17T06:56:31.746Z,74.90
2022-10-17T06:58:58.544Z,73.32
2022-10-17T07:01:25.728Z,70.93
2022-10-17T07:03:52.590Z,74.63
2022-10-17T07:06:19.385Z,77.00
2022-10-17T07:08:46.196Z,71.38
2022-10-17T07:11:16.190Z,70.35
2022-10-17T07:13:43.140Z,74.30
2022-10-17T07:16:11.463Z,65.72
2022-10-17T07:18:38.751Z,77.43
2022-10-17T07:21:06.208Z,66.68
2022-10-17T07:23:36.588Z,63.50
2022-10-17T07:26:08.695Z,64.82
2022-10-17T07:28:40.514Z,68.95
2022-10-17T07:33:35.109Z,68.07
2022-10-17T07:36:02.906Z,63.63
2022-10-17T07:38:30.290Z,66.88
2022-10-17T07:41:02.292Z,60.85
2022-10-17T07:43:29.540Z,80.47
2022-10-17T07:45:56.400Z,67.22
2022-10-17T07:48:24.727Z,67.88
2022-10-17T07:50:51.760Z,64.60
2022-10-17T07:53:19.432Z,75.38
2022-10-17T07:55:47.915Z,70.18
2022-10-17T07:58:15.245Z,66.88
2022-10-17T08:00:42.273Z,62.75
2022-10-17T08:03:10.893Z,66.00
2022-10-17T08:05:37.703Z,69.72
2022-10-17T08:08:04.596Z,61.55
2022-10-17T08:10:31.531Z,61.53
2022-10-17T08:12:58.962Z,59.53
2022-10-17T08:15:30.875Z,68.75
2022-10-17T08:17:59.584Z,68.63
2022-10-17T08:20:26.632Z,67.55
2022-10-17T08:22:56.655Z,62.97
2022-10-17T08:25:23.655Z,67.60
2022-10-17T08:27:50.491Z,64.00
2022-10-17T08:30:17.955Z,66.22
2022-10-17T08:32:44.666Z,67.88
2022-10-17T08:35:11.687Z,65.35
2022-10-17T08:37:38.525Z,68.40
2022-10-17T08:40:05.902Z,60.58
2022-10-17T08:42:51.051Z,69.18
2022-10-17T08:45:27.535Z,66.95
2022-10-17T08:48:02.466Z,62.80
2022-10-17T08:50:53.009Z,69.93
2022-10-17T08:53:19.712Z,66.03
2022-10-17T08:55:48.622Z,70.57
2022-10-17T08:58:24.798Z,80.00
2022-10-17T09:01:11.969Z,81.78
2022-10-17T09:04:07.649Z,75.38
2022-10-17T09:06:43.749Z,79.72
2022-10-17T09:09:25.521Z,81.45
2022-10-17T09:12:17.147Z,71.05
2022-10-17T09:15:10.151Z,78.03
2022-10-17T09:17:49.752Z,75.38
2022-10-17T09:20:23.723Z,73.32
2022-10-17T09:23:16.949Z,72.28
2022-10-17T09:25:58.820Z,74.32
2022-10-17T09:31:16.885Z,70.05
2022-10-17T09:33:54.856Z,76.97
2022-10-17T09:36:34.765Z,72.18
2022-10-17T09:39:04.901Z,73.38
2022-10-17T09:41:45.898Z,71.82
2022-10-17T09:47:04.136Z,73.35
2022-10-17T09:49:36.421Z,73.55
2022-10-17T09:52:05.439Z,76.50
2022-10-17T09:55:04.195Z,72.38
2022-10-17T09:57:58.292Z,80.95
2022-10-17T10:00:31.500Z,72.93
2022-10-17T10:03:15.843Z,77.15
2022-10-17T10:05:57.646Z,73.38
2022-10-17T10:11:13.450Z,73.75
2022-10-17T10:13:40.936Z,74.32
2022-10-17T10:16:24.221Z,73.47
2022-10-17T10:18:52.467Z,66.22
2022-10-17T10:21:24.928Z,73.35
2022-10-17T10:24:09.763Z,77.03
2022-10-17T10:26:48.724Z,72.82
2022-10-17T10:29:34.127Z,68.80
2022-10-17T10:32:19.324Z,69.97
2022-10-17T10:34:56.999Z,79.00
2022-10-17T10:37:29.952Z,71.38
2022-10-17T10:40:01.151Z,65.93
2022-10-17T10:42:37.603Z,65.97
2022-10-17T10:45:29.370Z,74.40
2022-10-17T10:48:20.595Z,67.75
2022-10-17T10:50:50.569Z,64.35
2022-10-17T10:53:37.762Z,73.65
2022-10-17T10:56:13.362Z,73.03
2022-10-17T10:58:51.992Z,70.70
2022-10-17T11:01:30.859Z,73.63
2022-10-17T11:04:06.910Z,73.32
2022-10-17T11:06:41.000Z,71.25
2022-10-17T11:09:49.501Z,72.22
2022-10-17T11:12:27.569Z,67.70
2022-10-17T11:15:27.943Z,68.47
2022-10-17T11:18:06.368Z,69.88
2022-10-17T11:20:45.113Z,67.38
2022-10-17T11:23:21.675Z,70.25
2022-10-17T11:25:51.758Z,71.90
2022-10-17T11:28:21.007Z,77.13
2022-10-17T11:30:55.520Z,69.90
2022-10-17T11:33:51.053Z,68.57
2022-10-17T11:36:21.970Z,71.05
2022-10-17T11:38:58.490Z,72.43
2022-10-17T11:41:41.573Z,73.28
2022-10-17T11:44:31.567Z,74.45
2022-10-17T11:47:04.391Z,71.63
2022-10-17T11:49:39.934Z,86.80
2022-10-17T11:55:28.124Z,64.53
2022-10-17T11:58:07.474Z,74.85
2022-10-17T12:00:48.957Z,73.22
2022-10-17T12:03:22.412Z,72.78
2022-10-17T12:05:57.428Z,72.15
2022-10-17T12:08:29.224Z,67.60
2022-10-17T12:11:25.644Z,66.30
2022-10-17T12:13:55.087Z,71.03
2022-10-17T12:16:21.859Z,74.53
2022-10-17T12:18:52.420Z,67.18
2022-10-17T12:21:19.162Z,75.00
2022-10-17T12:23:53.876Z,73.55
2022-10-17T12:26:28.841Z,75.10
2022-10-17T12:28:57.500Z,75.75
2022-10-17T12:31:33.318Z,67.07
2022-10-17T12:34:03.170Z,68.45
2022-10-17T12:36:29.950Z,71.25
2022-10-17T12:39:03.011Z,73.18
2022-10-17T12:41:38.686Z,65.60
2022-10-17T12:44:14.629Z,67.72
2022-10-17T12:46:47.986Z,65.82
2022-10-17T12:49:39.144Z,62.38
2022-10-17T12:52:25.430Z,70.22
2022-10-17T12:55:11.510Z,63.83
2022-10-17T12:57:48.066Z,61.28
2022-10-17T13:00:17.816Z,62.38
2022-10-17T13:02:45.318Z,63.88
2022-10-17T13:05:41.655Z,59.83
2022-10-17T13:08:15.151Z,63.60
2022-10-17T13:10:50.206Z,62.58
2022-10-17T13:13:39.934Z,64.25
2022-10-17T13:16:07.013Z,63.85
2022-10-17T13:18:34.124Z,56.97
2022-10-17T13:21:05.408Z,62.30
2022-10-17T13:23:37.782Z,64.07
2022-10-17T13:26:10.413Z,60.78
2022-10-17T13:28:39.567Z,61.90
2022-10-17T13:31:07.251Z,62.70
2022-10-17T13:33:39.506Z,65.25
2022-10-17T13:36:15.874Z,56.70
2022-10-17T13:38:43.204Z,65.53
2022-10-17T13:41:34.861Z,58.08
2022-10-17T13:44:07.887Z,62.45
2022-10-17T13:46:38.303Z,61.38
2022-10-17T13:51:56.108Z,57.80
2022-10-17T13:54:28.803Z,60.35
2022-10-17T13:56:57.496Z,59.75
2022-10-17T13:59:30.169Z,61.13
2022-10-17T14:01:57.146Z,62.10
2022-10-17T14:04:23.902Z,55.70
2022-10-17T14:06:52.365Z,59.72
2022-10-17T14:09:28.946Z,56.00
2022-10-17T14:11:58.807Z,55.53
2022-10-17T14:14:26.382Z,57.40
2022-10-17T14:16:53.420Z,55.50
2022-10-17T14:19:27.478Z,54.22
2022-10-17T14:22:20.188Z,52.90
2022-10-17T14:24:47.580Z,55.03
2022-10-17T14:27:36.474Z,60.08
2022-10-17T14:30:07.260Z,52.50
2022-10-17T14:32:36.162Z,50.40
2022-10-17T14:35:24.375Z,50.55
2022-10-17T14:37:54.371Z,48.47
2022-10-17T14:40:26.163Z,46.80
2022-10-17T14:42:56.036Z,44.67
2022-10-17T14:45:29.446Z,51.53
2022-10-17T14:48:03.147Z,46.35
2022-10-17T14:50:32.301Z,44.03
2022-10-17T14:53:11.471Z,43.75
2022-10-17T14:55:54.282Z,45.17
2022-10-17T14:58:29.462Z,44.55
2022-10-17T15:01:00.637Z,44.08
2022-10-17T15:03:27.986Z,44.85
2022-10-17T15:05:55.388Z,43.38
2022-10-17T15:08:24.335Z,45.35
2022-10-17T15:10:51.860Z,46.63
2022-10-17T15:13:41.035Z,39.50
2022-10-17T15:16:20.747Z,45.70
2022-10-17T15:18:47.782Z,41.92
2022-10-17T15:21:26.419Z,42.90
2022-10-17T15:24:04.506Z,46.85
2022-10-17T15:26:33.954Z,49.53
2022-10-17T15:29:03.200Z,44.10
2022-10-17T15:31:34.081Z,50.45
2022-10-17T15:34:02.896Z,52.20
2022-10-17T15:36:35.540Z,56.33
2022-10-17T15:39:02.970Z,55.42
2022-10-17T15:41:31.409Z,54.72
2022-10-17T15:43:59.004Z,69.55
2022-10-17T15:46:32.566Z,55.08
2022-10-17T15:49:03.258Z,60.45
2022-10-17T15:51:30.127Z,52.90
2022-10-17T15:53:56.955Z,56.35
2022-10-17T15:56:36.114Z,52.10
2022-10-17T15:59:15.159Z,60.50
2022-10-17T16:01:42.683Z,53.42
2022-10-17T16:04:15.427Z,46.08
2022-10-17T16:06:45.369Z,41.20
2022-10-17T16:09:12.234Z,45.10
2022-10-17T16:11:45.375Z,44.10
2022-10-17T16:14:14.652Z,49.53
2022-10-17T16:16:42.012Z,57.80
2022-10-17T16:19:09.140Z,52.78
2022-10-17T16:21:38.919Z,45.53
2022-10-17T16:24:06.290Z,51.13
2022-10-17T16:26:33.077Z,46.88
2022-10-17T16:29:02.966Z,45.05
2022-10-17T16:31:40.469Z,49.72
2022-10-17T16:34:08.897Z,49.55
2022-10-17T16:36:35.653Z,50.50
2022-10-17T16:39:05.043Z,52.40
2022-10-17T16:41:37.492Z,50.67
2022-10-17T16:44:10.694Z,50.22
2022-10-17T16:46:38.077Z,52.70
2022-10-17T16:49:06.108Z,56.05
2022-10-17T16:51:36.212Z,54.45
2022-10-17T16:54:04.551Z,52.53
2022-10-17T16:56:32.722Z,57.38
2022-10-17T16:59:00.770Z,56.20
2022-10-17T17:01:29.511Z,59.38
2022-10-17T17:03:57.122Z,54.08
2022-10-17T17:06:27.439Z,56.38
2022-10-17T17:08:55.135Z,58.15
2022-10-17T17:11:24.441Z,55.95
2022-10-17T17:13:51.646Z,58.92
2022-10-17T17:16:21.504Z,56.15
2022-10-17T17:18:50.872Z,60.42
2022-10-17T17:21:17.890Z,58.53
2022-10-17T17:23:45.395Z,57.25
2022-10-17T17:26:15.197Z,62.88
2022-10-17T17:28:42.761Z,62.60
2022-10-17T17:31:18.367Z,66.93
2022-10-17T17:33:48.984Z,55.45
2022-10-17T17:36:20.698Z,57.78
2022-10-17T17:38:48.732Z,59.65
2022-10-17T17:41:18.157Z,60.33
2022-10-17T17:43:46.512Z,56.10
2022-10-17T17:46:16.489Z,64.35
2022-10-17T17:48:47.043Z,62.60
2022-10-17T17:51:18.036Z,68.78
2022-10-17T17:53:44.866Z,64.35
2022-10-17T17:56:15.964Z,64.70
2022-10-17T17:58:50.279Z,68.15
2022-10-17T18:01:26.918Z,69.82
2022-10-17T18:03:55.510Z,65.68
2022-10-17T18:06:23.385Z,70.28
2022-10-17T18:08:55.852Z,67.30
2022-10-17T18:11:22.747Z,70.88
2022-10-17T18:13:57.983Z,69.28
2022-10-17T18:16:25.624Z,69.68
2022-10-17T18:18:54.289Z,74.72
2022-10-17T18:21:21.301Z,69.03
2022-10-17T18:23:52.728Z,73.07
2022-10-17T18:26:19.942Z,73.60
2022-10-17T18:28:47.190Z,75.68
2022-10-17T18:31:19.005Z,70.35
2022-10-17T18:36:15.223Z,69.78
2022-10-17T18:38:44.548Z,76.65
2022-10-17T18:41:20.814Z,73.78
2022-10-17T18:43:49.094Z,69.05
2022-10-17T18:46:29.888Z,66.65
2022-10-17T18:48:56.901Z,71.50
2022-10-17T18:51:24.898Z,73.32
2022-10-17T18:53:54.846Z,70.15
2022-10-17T18:56:22.695Z,65.65
2022-10-17T18:58:49.506Z,60.40
2022-10-17T19:01:22.825Z,57.72
2022-10-17T19:03:51.977Z,59.67
2022-10-17T19:06:21.120Z,60.53
2022-10-17T19:08:50.871Z,59.00
2022-10-17T19:11:23.403Z,54.45
2022-10-17T19:13:56.424Z,53.28
2022-10-17T19:16:30.321Z,53.63
2022-10-17T19:19:03.405Z,51.22
2022-10-17T19:21:30.141Z,55.42
2022-10-17T19:23:59.572Z,49.28
2022-10-17T19:26:27.868Z,47.97
2022-10-17T19:28:55.161Z,50.00
2022-10-17T19:31:27.121Z,48.83
2022-10-17T19:33:55.841Z,49.47
2022-10-17T19:36:30.708Z,46.17
2022-10-17T19:39:02.270Z,44.50
2022-10-17T19:41:29.148Z,45.67
2022-10-17T19:43:55.945Z,48.00
2022-10-17T19:46:25.244Z,44.92
2022-10-17T19:48:55.388Z,51.78
2022-10-17T19:51:26.712Z,43.53
2022-10-17T19:53:57.415Z,50.00
2022-10-17T19:56:25.222Z,44.88
2022-10-17T19:58:54.140Z,44.95
2022-10-17T20:01:28.700Z,45.80
2022-10-17T20:03:58.231Z,47.97
2022-10-17T20:06:25.223Z,44.45
2022-10-17T20:08:52.462Z,47.05
2022-10-17T20:11:21.824Z,44.90
2022-10-17T20:13:48.854Z,40.33
2022-10-17T20:16:20.501Z,44.40
2022-10-17T20:18:48.603Z,46.40
2022-10-17T20:21:18.731Z,40.88
2022-10-17T20:23:47.822Z,40.58
2022-10-17T20:26:26.389Z,41.70
2022-10-17T20:29:08.727Z,41.50
2022-10-17T20:31:35.733Z,40.63
2022-10-17T20:34:05.456Z,42.42
2022-10-17T20:36:37.435Z,39.40
2022-10-17T20:39:06.099Z,40.33
2022-10-17T20:41:34.154Z,41.65
2022-10-17T20:44:02.968Z,41.80
2022-10-17T20:46:36.970Z,42.17
2022-10-17T20:49:18.453Z,42.83
2022-10-17T20:51:45.550Z,32.38
2022-10-17T20:54:12.774Z,37.95
2022-10-17T20:56:43.081Z,36.95
2022-10-17T20:59:16.208Z,39.20
2022-10-17T21:01:43.547Z,35.90
2022-10-17T21:04:40.561Z,36.33
2022-10-17T21:06:57.272Z,34.75
2022-10-17T21:09:26.790Z,37.88
2022-10-17T21:11:56.800Z,36.17
2022-10-17T21:14:25.046Z,34.92
2022-10-17T21:16:52.443Z,36.40
2022-10-17T21:19:21.627Z,34.08
2022-10-17T21:21:48.619Z,34.78
2022-10-17T21:24:20.894Z,35.38
2022-10-17T21:26:50.355Z,33.95
2022-10-17T21:29:17.176Z,31.33
2022-10-17T21:31:45.058Z,31.35
2022-10-17T21:34:18.340Z,30.33
2022-10-17T21:36:45.468Z,34.53
2022-10-17T21:39:13.642Z,32.80
2022-10-17T21:41:41.096Z,34.90
2022-10-17T21:44:18.850Z,34.05
2022-10-17T21:46:46.699Z,31.25
2022-10-17T21:49:16.160Z,34.92
2022-10-17T21:51:44.643Z,31.83
2022-10-17T21:54:11.547Z,30.17
2022-10-17T21:56:38.315Z,32.00
2022-10-17T21:59:05.432Z,32.15
2022-10-17T22:01:35.189Z,29.00
2022-10-17T22:04:04.732Z,30.83
2022-10-17T22:06:41.357Z,32.00
2022-10-17T22:09:22.910Z,30.17
2022-10-17T22:11:53.016Z,30.60
2022-10-17T22:14:21.298Z,32.10
2022-10-17T22:16:49.183Z,29.48
2022-10-17T22:19:21.831Z,31.30
2022-10-17T22:21:48.791Z,30.52
2022-10-17T22:24:17.291Z,30.83
2022-10-17T22:26:44.867Z,27.45
2022-10-17T22:29:12.124Z,30.88
2022-10-17T22:31:39.224Z,28.60
2022-10-17T22:34:07.164Z,23.35
2022-10-17T22:36:34.697Z,27.83
2022-10-17T22:39:01.533Z,29.60
2022-10-17T22:41:28.329Z,25.50
2022-10-17T22:43:55.134Z,25.67
2022-10-17T22:46:21.995Z,27.15
2022-10-17T22:48:48.690Z,28.45
2022-10-17T22:51:15.903Z,27.67
2022-10-17T22:53:42.709Z,27.70
2022-10-17T22:56:17.309Z,26.40
2022-10-17T22:58:44.262Z,27.65
2022-10-17T23:01:15.555Z,23.83
2022-10-17T23:03:42.540Z,23.67
2022-10-17T23:06:09.898Z,26.02
2022-10-17T23:08:36.869Z,26.02
2022-10-17T23:11:03.954Z,25.20
2022-10-17T23:13:30.879Z,24.88
2022-10-17T23:15:57.815Z,25.10
2022-10-17T23:18:25.833Z,27.65
2022-10-17T23:20:53.499Z,25.98
2022-10-17T23:23:20.779Z,24.08
2022-10-17T23:25:48.336Z,25.73
2022-10-17T23:28:15.209Z,22.35
2022-10-17T23:30:42.146Z,24.98
2022-10-17T23:33:11.759Z,23.48
2022-10-17T23:35:38.610Z,23.85
2022-10-17T23:38:05.384Z,23.08
2022-10-17T23:40:32.150Z,21.75
2022-10-17T23:42:58.898Z,21.98
2022-10-17T23:45:25.692Z,21.67
2022-10-17T23:47:52.501Z,20.75
2022-10-17T23:50:19.304Z,22.85
2022-10-17T23:52:46.102Z,21.38
2022-10-17T23:55:12.909Z,17.38
2022-10-17T23:57:39.692Z,22.95
